Time;durP1;ratioP1;P1;durP2;ratioP2;P2;SDS_P1;SDS_P2;PMS_P1;PMS_P2;Temp;Humidity;BMP_temperature;BMP_pressure;BME280_temperature;BME280_humidity;BME280_pressure;Samples;Min_cycle;Max_cycle;Signal;HPM_P1;HPM_P2
2022/11/02 00:02:41;;;;;;;0.00;0.00;;;;;;;13.99;62.06;98519.97;8219659;29;20230;-75
2022/11/02 00:06:44;;;;;;;0.00;0.00;;;;;;;13.99;62.60;98514.75;8219509;29;20238;-75
2022/11/02 00:10:47;;;;;;;0.10;0.10;;;;;;;14.06;62.07;98509.16;8219266;29;20560;-75
2022/11/02 00:14:51;;;;;;;0.03;0.03;;;;;;;14.06;62.79;98513.53;8219183;29;20506;-75
2022/11/02 00:18:55;;;;;;;0.00;0.00;;;;;;;14.09;62.50;98505.59;8210473;29;20245;-75
2022/11/02 00:23:00;;;;;;;0.10;0.10;;;;;;;14.07;62.53;98516.06;8218931;29;20234;-75
2022/11/02 00:27:03;;;;;;;0.00;0.00;;;;;;;14.06;62.86;98513.53;8218697;29;20250;-76
2022/11/02 00:31:07;;;;;;;0.10;0.10;;;;;;;14.06;62.16;98516.16;8218819;29;20246;-75
2022/11/02 00:35:10;;;;;;;0.10;0.10;;;;;;;14.00;62.12;98522.50;8218681;29;20243;-75
2022/11/02 00:39:13;;;;;;;0.00;0.00;;;;;;;14.07;62.36;98529.09;8218469;29;20510;-75
2022/11/02 00:43:16;;;;;;;0.00;0.00;;;;;;;13.94;62.02;98528.00;8218546;29;20451;-75
2022/11/02 00:47:20;;;;;;;0.00;0.00;;;;;;;13.92;62.19;98529.00;8218471;29;20231;-75
2022/11/02 00:51:23;;;;;;;0.10;0.10;;;;;;;13.86;62.17;98533.59;8218421;28;20249;-76
2022/11/02 00:55:25;;;;;;;0.10;0.10;;;;;;;13.95;62.16;98531.44;8218043;29;20528;-75
2022/11/02 00:59:28;;;;;;;0.00;0.00;;;;;;;13.96;62.27;98525.34;8218129;29;20242;-76
2022/11/02 01:03:32;;;;;;;0.00;0.00;;;;;;;13.95;62.24;98532.28;8218407;29;20235;-76
2022/11/02 01:07:36;;;;;;;0.10;0.10;;;;;;;13.94;62.21;98530.63;8218213;29;20235;-76
2022/11/02 01:11:40;;;;;;;0.10;0.10;;;;;;;13.93;61.74;98528.91;8218134;29;20490;-76
2022/11/02 01:15:43;;;;;;;0.00;0.00;;;;;;;13.85;62.35;98531.91;8217559;29;20530;-76
2022/11/02 01:19:47;;;;;;;0.00;0.00;;;;;;;13.78;62.61;98521.84;8217729;29;20246;-75
2022/11/02 01:23:50;;;;;;;0.00;0.00;;;;;;;13.81;62.57;98524.31;8217539;29;20234;-75
2022/11/02 01:27:53;;;;;;;0.10;0.10;;;;;;;13.78;62.50;98520.09;8185687;29;20561;-76
2022/11/02 01:31:55;;;;;;;0.00;0.00;;;;;;;13.79;62.41;98513.16;8185924;29;20302;-76
2022/11/02 01:36:03;;;;;;;0.00;0.00;;;;;;;13.83;62.52;98519.88;8185903;29;20243;-76
2022/11/02 01:40:07;;;;;;;0.10;0.10;;;;;;;13.76;62.55;98513.28;8185808;29;20236;-76
2022/11/02 01:44:26;;;;;;;0.00;0.00;;;;;;;13.80;62.43;98517.41;8186152;29;20246;-75
2022/11/02 01:48:32;;;;;;;0.10;0.10;;;;;;;13.77;62.47;98514.97;8185944;29;20445;-76
2022/11/02 01:52:38;;;;;;;0.00;0.00;;;;;;;13.60;62.62;98508.00;8185514;29;20282;-77
2022/11/02 01:56:41;;;;;;;0.10;0.10;;;;;;;13.69;62.34;98515.34;8185881;29;20227;-76
2022/11/02 02:00:44;;;;;;;0.00;0.00;;;;;;;13.68;62.15;98518.88;8206986;23;20247;-89
2022/11/02 02:04:59;;;;;;;0.10;0.10;;;;;;;13.63;61.92;98510.44;8219755;23;20227;-75
2022/11/02 02:09:05;;;;;;;0.10;0.10;;;;;;;13.56;62.09;98507.28;8210032;29;20552;-76
2022/11/02 02:13:13;;;;;;;0.10;0.10;;;;;;;13.52;62.41;98497.09;8216887;28;20591;-76
2022/11/02 02:17:30;;;;;;;0.07;0.07;;;;;;;13.54;61.97;98505.69;8222502;29;20230;-75
2022/11/02 02:21:42;;;;;;;0.00;0.00;;;;;;;13.43;62.51;98500.97;8222422;29;20239;-76
2022/11/02 02:26:01;;;;;;;0.00;0.00;;;;;;;13.39;61.88;98500.28;8222434;29;20568;-75
2022/11/02 02:30:08;;;;;;;0.00;0.00;;;;;;;13.33;62.42;98492.78;8221783;29;20231;-75
2022/11/02 02:34:15;;;;;;;0.00;0.00;;;;;;;13.34;61.91;98491.00;8222097;28;20231;-76
2022/11/02 02:38:25;;;;;;;0.00;0.00;;;;;;;13.33;62.03;98484.09;8222078;29;20453;-76
2022/11/02 02:42:32;;;;;;;0.07;0.07;;;;;;;13.17;62.40;98483.97;8221721;29;20235;-76
2022/11/02 02:46:40;;;;;;;0.03;0.03;;;;;;;13.18;62.47;98483.06;8221590;29;20230;-75
2022/11/02 02:50:48;;;;;;;0.10;0.10;;;;;;;13.22;62.12;98482.00;8221584;28;20258;-76
2022/11/02 02:54:52;;;;;;;0.00;0.00;;;;;;;13.10;62.16;98467.81;8221541;29;20281;-75
2022/11/02 02:58:58;;;;;;;0.07;0.07;;;;;;;13.15;61.72;98472.78;8220790;29;20290;-76
2022/11/02 03:03:04;;;;;;;0.10;0.10;;;;;;;13.05;62.04;98473.22;8221387;29;20263;-75
2022/11/02 03:07:09;;;;;;;0.00;0.00;;;;;;;13.10;62.13;98467.81;8213009;28;20246;-75
2022/11/02 03:11:13;;;;;;;0.10;0.10;;;;;;;13.11;61.74;98474.69;8221343;29;20238;-76
2022/11/02 03:15:20;;;;;;;0.00;0.00;;;;;;;12.98;61.53;98469.19;8220385;29;20231;-76
2022/11/02 03:19:29;;;;;;;0.10;0.10;;;;;;;13.00;61.52;98469.97;8220463;29;20282;-75
2022/11/02 03:23:36;;;;;;;0.10;0.10;;;;;;;13.08;61.46;98470.47;8220696;29;20235;-76
2022/11/02 03:27:44;;;;;;;0.10;0.10;;;;;;;13.01;62.32;98483.84;8219352;28;20237;-76
2022/11/02 03:31:54;;;;;;;0.10;0.10;;;;;;;13.18;62.20;98476.09;8220544;29;20239;-75
2022/11/02 03:36:05;;;;;;;0.10;0.10;;;;;;;13.22;62.33;98482.84;8211946;29;20393;-77
2022/11/02 03:40:11;;;;;;;0.10;0.10;;;;;;;13.27;62.25;98486.06;8220127;29;20310;-76
2022/11/02 03:44:16;;;;;;;0.10;0.10;;;;;;;13.34;62.09;98491.00;8220000;29;20235;-75
2022/11/02 03:48:20;;;;;;;0.10;0.10;;;;;;;13.34;62.38;98484.03;8219964;29;20230;-76
2022/11/02 03:52:28;;;;;;;0.10;0.10;;;;;;;13.24;62.25;98485.38;8219735;29;20250;-76
2022/11/02 03:56:33;;;;;;;0.10;0.10;;;;;;;13.35;62.16;98497.91;8219653;29;20289;-76
2022/11/02 04:00:37;;;;;;;0.10;0.10;;;;;;;13.32;61.93;98498.03;8219480;29;20241;-76
2022/11/02 04:04:48;;;;;;;0.10;0.10;;;;;;;13.33;61.96;98494.50;8219391;28;20428;-75
2022/11/02 04:08:52;;;;;;;0.10;0.10;;;;;;;13.36;61.89;98497.81;8219420;29;20529;-77
2022/11/02 04:21:36;;;;;;;0.00;0.00;;;;;;;13.33;62.23;98502.31;8218794;29;20235;-75
2022/11/02 04:25:39;;;;;;;0.00;0.00;;;;;;;13.36;61.94;98490.00;8219093;29;20231;-75
2022/11/02 04:29:42;;;;;;;0.10;0.10;;;;;;;13.32;61.77;98493.69;8218702;29;20257;-75
2022/11/02 04:33:44;;;;;;;0.00;0.00;;;;;;;13.34;62.01;98494.44;8218671;29;20234;-75
2022/11/02 04:42:09;;;;;;;0.10;0.10;;;;;;;13.29;62.17;98496.41;8204284;29;20534;-75
2022/11/02 04:46:12;;;;;;;0.10;0.10;;;;;;;13.36;61.81;98495.22;8218332;29;20269;-75
2022/11/02 04:50:15;;;;;;;0.00;0.00;;;;;;;13.30;61.85;98496.34;8218280;29;20297;-75
2022/11/02 04:54:18;;;;;;;0.10;0.10;;;;;;;13.30;61.90;98500.72;8218286;29;20518;-75
2022/11/02 04:58:22;;;;;;;0.10;0.10;;;;;;;13.29;61.89;98507.66;8218066;29;20299;-75
2022/11/02 05:02:25;;;;;;;0.10;0.10;;;;;;;13.29;62.13;98507.66;8217619;29;20238;-75
2022/11/02 05:06:27;;;;;;;0.00;0.00;;;;;;;13.36;61.66;98510.81;8218096;28;20351;-75
2022/11/02 05:10:30;;;;;;;0.00;0.00;;;;;;;13.32;61.91;98498.88;8217874;29;20239;-75
2022/11/02 05:14:34;;;;;;;0.10;0.10;;;;;;;13.35;62.20;98500.50;8217936;29;20230;-75
2022/11/02 05:18:37;;;;;;;0.00;0.00;;;;;;;13.34;62.17;98501.41;8217658;29;20281;-75
2022/11/02 05:22:42;;;;;;;0.10;0.10;;;;;;;13.29;61.64;98504.22;8217493;29;20239;-75
2022/11/02 05:26:44;;;;;;;0.07;0.07;;;;;;;13.17;62.37;98510.81;8217802;29;20259;-75
2022/11/02 05:30:58;;;;;;;0.10;0.10;;;;;;;13.22;62.09;98506.25;8209103;28;20404;-75
2022/11/02 05:35:01;;;;;;;0.00;0.00;;;;;;;13.18;62.25;98507.31;8217731;29;20239;-75
2022/11/02 05:39:03;;;;;;;0.10;0.10;;;;;;;13.14;62.06;98515.31;8217348;29;20243;-75
2022/11/02 05:43:07;;;;;;;0.00;0.00;;;;;;;13.11;61.84;98519.72;8217482;29;20239;-75
2022/11/02 05:47:11;;;;;;;0.10;0.10;;;;;;;13.13;62.35;98521.44;8217389;29;20234;-75
2022/11/02 05:51:14;;;;;;;0.10;0.10;;;;;;;13.08;62.48;98529.44;8222028;28;20297;-75
2022/11/02 05:55:17;;;;;;;0.00;0.00;;;;;;;13.06;62.02;98529.53;8223491;29;20243;-75
2022/11/02 05:59:19;;;;;;;0.07;0.07;;;;;;;13.13;61.94;98537.03;8223266;29;20235;-75
2022/11/02 06:03:23;;;;;;;0.10;0.10;;;;;;;12.96;61.62;98538.63;8222674;29;20286;-75
2022/11/02 06:07:26;;;;;;;0.10;0.10;;;;;;;13.11;61.87;98540.53;8222422;29;20301;-75
2022/11/02 06:11:29;;;;;;;0.03;0.03;;;;;;;13.14;61.80;98531.75;8223015;29;20234;-76
2022/11/02 06:15:33;;;;;;;0.10;0.10;;;;;;;13.21;61.72;98534.91;8222742;29;20245;-75
2022/11/02 06:19:37;;;;;;;0.10;0.10;;;;;;;13.23;61.25;98543.47;8222744;29;20382;-75
2022/11/02 06:23:41;;;;;;;0.10;0.10;;;;;;;13.17;61.59;98539.41;8222486;29;20277;-75
2022/11/02 06:27:50;;;;;;;0.10;0.10;;;;;;;13.20;61.17;98546.25;8222515;29;20243;-75
2022/11/02 06:31:53;;;;;;;0.10;0.10;;;;;;;13.19;61.22;98562.75;8213859;29;20293;-75
2022/11/02 06:35:57;;;;;;;0.10;0.10;;;;;;;13.21;61.16;98566.13;8222249;29;20241;-75
2022/11/02 06:40:00;;;;;;;0.07;0.07;;;;;;;13.21;61.18;98566.13;8222193;29;20540;-75
2022/11/02 06:44:03;;;;;;;0.10;0.10;;;;;;;13.25;61.23;98568.53;8222160;29;20230;-75
2022/11/02 06:48:06;;;;;;;0.10;0.10;;;;;;;13.27;61.18;98573.66;8221720;29;20231;-75
2022/11/02 06:52:10;;;;;;;0.03;0.03;;;;;;;13.37;60.97;98576.72;8221763;29;20526;-75
2022/11/02 06:56:13;;;;;;;0.10;0.10;;;;;;;13.30;61.31;98576.97;8221630;29;20234;-75
2022/11/02 07:00:17;;;;;;;0.10;0.10;;;;;;;13.44;61.19;98586.78;8221043;28;20297;-75
2022/11/02 07:04:25;;;;;;;0.10;0.10;;;;;;;13.38;61.80;98587.03;8221090;28;20263;-75
2022/11/02 07:08:29;;;;;;;0.10;0.10;;;;;;;13.54;60.97;98597.59;8221089;29;20233;-77
2022/11/02 07:12:32;;;;;;;0.10;0.10;;;;;;;13.51;60.91;98592.53;8221013;29;20234;-75
2022/11/02 07:16:34;;;;;;;0.00;0.00;;;;;;;13.58;61.03;98599.13;8220998;29;20299;-75
2022/11/02 07:20:37;;;;;;;0.00;0.00;;;;;;;13.43;61.62;98610.25;8220703;29;20246;-75
2022/11/02 07:24:41;;;;;;;0.07;0.07;;;;;;;13.64;60.61;98622.25;8220854;29;20305;-75
2022/11/02 07:28:45;;;;;;;0.00;0.00;;;;;;;13.72;60.59;98616.69;8220648;29;20262;-75
2022/11/02 07:32:48;;;;;;;0.10;0.10;;;;;;;13.72;60.78;98626.28;8220768;29;20245;-75
2022/11/02 07:36:51;;;;;;;0.10;0.10;;;;;;;14.26;59.67;98628.00;8220338;29;20258;-76
2022/11/02 07:40:55;;;;;;;0.00;0.00;;;;;;;14.94;57.90;98635.06;8211716;29;20250;-75
2022/11/02 07:44:58;;;;;;;0.00;0.00;;;;;;;15.48;56.18;98637.50;8220157;29;20243;-75
2022/11/02 07:49:00;;;;;;;0.10;0.10;;;;;;;14.92;57.65;98644.75;8220103;29;20247;-77
2022/11/02 07:53:03;;;;;;;0.10;0.10;;;;;;;14.77;57.76;98643.75;8219941;29;20541;-75
2022/11/02 07:57:08;;;;;;;0.00;0.00;;;;;;;14.89;57.97;98651.88;8219680;29;20242;-75
2022/11/02 08:01:10;;;;;;;0.00;0.00;;;;;;;14.94;58.47;98658.53;8219614;29;20251;-75
2022/11/02 08:05:14;;;;;;;0.00;0.00;;;;;;;14.64;58.47;98656.59;8219564;28;20235;-74
2022/11/02 08:09:18;;;;;;;0.00;0.00;;;;;;;14.66;59.25;98659.13;8219537;29;20518;-74
2022/11/02 08:13:24;;;;;;;0.00;0.00;;;;;;;14.67;58.97;98660.78;8218412;28;20245;-74
2022/11/02 08:17:27;;;;;;;0.00;0.00;;;;;;;14.71;58.25;98664.91;8219336;29;20226;-74
2022/11/02 08:21:30;;;;;;;0.00;0.00;;;;;;;14.95;58.27;98669.84;8218852;29;20246;-74
2022/11/02 08:25:33;;;;;;;0.00;0.00;;;;;;;14.93;58.96;98680.34;8218808;29;20227;-75
2022/11/02 08:29:37;;;;;;;0.00;0.00;;;;;;;14.73;58.85;98683.94;8219278;29;20315;-74
2022/11/02 08:33:40;;;;;;;0.00;0.00;;;;;;;14.79;59.41;98682.78;8218811;29;20230;-74
2022/11/02 08:37:42;;;;;;;0.00;0.00;;;;;;;14.75;59.42;98689.91;8218486;29;20227;-75
2022/11/02 08:41:45;;;;;;;0.00;0.00;;;;;;;14.69;58.61;98690.22;8218505;29;20254;-74
2022/11/02 08:45:49;;;;;;;0.00;0.00;;;;;;;14.37;59.65;98687.41;8218505;29;20241;-74
2022/11/02 08:50:12;;;;;;;0.00;0.00;;;;;;;14.53;59.81;98686.69;8209805;29;20265;-74
2022/11/02 08:54:15;;;;;;;0.00;0.00;;;;;;;14.58;60.20;98693.38;8218366;29;20230;-74
2022/11/02 08:58:18;;;;;;;0.10;0.10;;;;;;;14.63;60.25;98690.53;8218103;29;20226;-73
2022/11/02 09:02:23;;;;;;;0.10;0.10;;;;;;;14.65;60.81;98691.31;8218010;29;20242;-74
2022/11/02 09:06:26;;;;;;;0.10;0.10;;;;;;;14.56;61.84;98689.94;8217848;28;20410;-74
2022/11/02 09:10:30;;;;;;;0.03;0.03;;;;;;;14.85;61.16;98692.94;8218218;29;20342;-74
2022/11/02 09:14:33;;;;;;;0.07;0.07;;;;;;;15.20;60.55;98698.94;8217926;29;20525;-75
2022/11/02 09:18:37;;;;;;;0.00;0.00;;;;;;;15.53;59.73;98697.25;8218253;29;20425;-74
2022/11/02 09:22:40;;;;;;;0.00;0.00;;;;;;;15.77;58.55;98687.31;8218027;28;20247;-74
2022/11/02 09:26:43;;;;;;;0.00;0.00;;;;;;;16.15;57.70;98698.28;8223977;29;20234;-74
2022/11/02 09:30:46;;;;;;;0.00;0.00;;;;;;;16.96;55.14;98684.13;8224047;29;20471;-74
2022/11/02 09:34:51;;;;;;;0.10;0.10;;;;;;;17.30;54.99;98688.16;8223826;29;20326;-74
2022/11/02 09:38:53;;;;;;;0.10;0.10;;;;;;;16.83;54.15;98691.00;8191612;29;20541;-74
2022/11/02 09:43:03;;;;;;;0.00;0.00;;;;;;;16.40;54.82;98683.84;8191597;29;20247;-74
2022/11/02 09:47:09;;;;;;;0.00;0.00;;;;;;;16.37;55.07;98699.69;8191987;29;20247;-75
2022/11/02 09:51:35;;;;;;;0.00;0.00;;;;;;;16.05;55.56;98702.34;8191451;29;20306;-74
2022/11/02 09:55:49;;;;;;;0.00;0.00;;;;;;;16.28;54.72;98694.97;8191587;29;20239;-74
2022/11/02 09:59:52;;;;;;;0.00;0.00;;;;;;;16.18;56.00;98703.34;8190702;28;20251;-74
2022/11/02 10:04:11;;;;;;;0.00;0.00;;;;;;;16.30;54.98;98703.59;8190609;28;20263;-75
2022/11/02 10:08:34;;;;;;;0.10;0.10;;;;;;;16.90;64.55;98708.84;8190272;28;20243;-75
2022/11/02 10:12:41;;;;;;;0.00;0.00;;;;;;;17.09;66.36;98708.63;8190471;28;20246;-74
2022/11/02 10:16:49;;;;;;;0.00;0.00;;;;;;;16.72;58.46;98708.13;8190272;28;20396;-74
2022/11/02 10:20:56;;;;;;;0.00;0.00;;;;;;;16.73;55.02;98696.72;8221898;29;20298;-74
2022/11/02 10:25:02;;;;;;;0.00;0.00;;;;;;;16.60;54.86;98703.59;8221648;29;20250;-74
2022/11/02 10:29:14;;;;;;;0.00;0.00;;;;;;;16.51;54.96;98704.16;8221773;29;20243;-75
2022/11/02 10:33:25;;;;;;;0.00;0.00;;;;;;;16.19;55.66;98697.16;8221725;29;20231;-75
2022/11/02 10:37:38;;;;;;;0.00;0.00;;;;;;;16.16;55.61;98699.97;8220993;28;20243;-75
2022/11/02 10:42:00;;;;;;;0.10;0.10;;;;;;;16.47;54.19;98692.16;8220887;29;20510;-75
2022/11/02 10:46:22;;;;;;;0.00;0.00;;;;;;;16.36;53.66;98696.22;8195493;28;20230;-75
2022/11/02 10:50:39;;;;;;;0.00;0.00;;;;;;;16.31;54.18;98700.03;8188999;28;20227;-75
2022/11/02 10:54:42;;;;;;;0.00;0.00;;;;;;;16.16;53.83;98699.09;8189207;28;20235;-75
2022/11/02 10:58:50;;;;;;;0.00;0.00;;;;;;;16.07;52.59;98695.25;8189279;28;20246;-75
2022/11/02 11:03:08;;;;;;;0.00;0.00;;;;;;;16.37;52.28;98691.84;8219775;29;20239;-75
2022/11/02 11:07:15;;;;;;;0.00;0.00;;;;;;;16.72;51.14;98702.06;8220077;28;20255;-75
2022/11/02 11:11:20;;;;;;;0.00;0.00;;;;;;;16.69;50.31;98695.22;8220278;29;20541;-75
2022/11/02 11:15:28;;;;;;;0.03;0.03;;;;;;;16.68;50.60;98692.69;8220560;29;20285;-75
2022/11/02 11:19:51;;;;;;;0.00;0.00;;;;;;;16.54;51.08;98699.56;8220677;29;20231;-75
2022/11/02 11:24:13;;;;;;;0.00;0.00;;;;;;;16.23;50.96;98696.06;8219807;29;20231;-75
2022/11/02 11:28:23;;;;;;;0.00;0.00;;;;;;;16.54;51.36;98702.16;8220095;29;20368;-75
2022/11/02 11:32:28;;;;;;;0.00;0.00;;;;;;;16.74;50.55;98705.44;8220043;29;20230;-75
2022/11/02 11:36:34;;;;;;;0.00;0.00;;;;;;;16.49;50.94;98714.69;8219890;29;20259;-75
2022/11/02 11:40:38;;;;;;;0.00;0.00;;;;;;;16.48;50.75;98712.97;8219755;29;20399;-75
2022/11/02 11:44:44;;;;;;;0.00;0.00;;;;;;;16.64;50.63;98704.25;8219515;29;20281;-75
2022/11/02 11:48:50;;;;;;;0.00;0.00;;;;;;;16.72;50.94;98695.06;8218670;28;20433;-75
2022/11/02 11:53:10;;;;;;;0.00;0.00;;;;;;;16.56;50.75;98702.97;8202513;29;20237;-75
2022/11/02 11:57:28;;;;;;;0.00;0.00;;;;;;;17.24;49.32;98698.19;8218677;29;20274;-75
2022/11/02 12:01:39;;;;;;;0.00;0.00;;;;;;;17.62;48.78;98701.09;8218998;29;20430;-75
2022/11/02 12:05:59;;;;;;;0.00;0.00;;;;;;;17.55;47.63;98698.03;8218568;28;20258;-75
2022/11/02 12:10:15;;;;;;;0.00;0.00;;;;;;;17.42;46.84;98699.69;8426755;27;20561;-75
2022/11/02 12:14:33;;;;;;;0.00;0.00;;;;;;;17.83;46.56;98690.22;8408732;28;20273;-74
2022/11/02 12:18:48;;;;;;;0.00;0.00;;;;;;;17.78;44.31;98701.84;8408956;28;20232;-76
2022/11/02 12:22:58;;;;;;;0.00;0.00;;;;;;;18.12;44.88;98686.63;8408586;28;20230;-74
2022/11/02 12:27:11;;;;;;;0.00;0.00;;;;;;;18.12;44.95;98689.22;8408134;28;20249;-75
2022/11/02 12:31:21;;;;;;;0.00;0.00;;;;;;;18.21;43.37;98689.59;8408632;28;20232;-74
2022/11/02 12:35:54;;;;;;;0.00;0.00;;;;;;;18.51;43.43;98689.41;8408407;28;20234;-74
2022/11/02 12:40:10;;;;;;;0.00;0.00;;;;;;;18.55;43.06;98685.63;8404106;28;20235;-74
2022/11/02 12:44:33;;;;;;;0.00;0.00;;;;;;;18.74;42.44;98685.25;8407802;28;20256;-75
2022/11/02 12:48:43;;;;;;;0.00;0.00;;;;;;;18.95;41.09;98683.84;8407881;28;20239;-75
2022/11/02 12:52:55;;;;;;;0.00;0.00;;;;;;;19.06;41.00;98682.31;8407886;28;20232;-74
2022/11/02 12:56:58;;;;;;;0.00;0.00;;;;;;;19.06;40.10;98679.69;8440929;28;20250;-74
2022/11/02 13:01:08;;;;;;;0.00;0.00;;;;;;;18.92;38.50;98676.19;8440868;28;20246;-75
2022/11/02 13:05:17;;;;;;;0.00;0.00;;;;;;;19.07;38.79;98671.66;8441310;27;20547;-74
2022/11/02 13:09:23;;;;;;;0.00;0.00;;;;;;;18.85;38.99;98680.16;8440387;27;20228;-74
2022/11/02 13:13:29;;;;;;;0.00;0.00;;;;;;;19.12;38.06;98672.22;8440424;27;20241;-74
2022/11/02 13:17:37;;;;;;;0.00;0.00;;;;;;;19.12;37.53;98655.63;8440466;27;20554;-74
2022/11/02 13:21:43;;;;;;;0.00;0.00;;;;;;;19.33;37.98;98656.75;8417356;28;20276;-74
2022/11/02 13:25:50;;;;;;;0.00;0.00;;;;;;;19.15;37.07;98658.03;8417731;28;20431;-74
2022/11/02 13:29:56;;;;;;;0.00;0.00;;;;;;;18.51;37.61;98656.16;8417030;28;20232;-75
2022/11/02 13:34:02;;;;;;;0.00;0.00;;;;;;;19.05;37.43;98654.34;8417448;28;20504;-74
2022/11/02 13:38:16;;;;;;;0.00;0.00;;;;;;;19.06;37.36;98656.06;8417431;28;20241;-76
2022/11/02 13:42:47;;;;;;;0.00;0.00;;;;;;;19.03;37.46;98656.25;8416980;28;20366;-74
2022/11/02 13:47:02;;;;;;;0.00;0.00;;;;;;;18.80;37.36;98650.78;8406661;28;20435;-74
2022/11/02 13:51:09;;;;;;;0.00;0.00;;;;;;;19.20;38.22;98648.06;8416733;28;20228;-74
2022/11/02 13:55:19;;;;;;;0.00;0.00;;;;;;;19.00;37.45;98649.44;8416859;28;20242;-75
2022/11/02 13:59:23;;;;;;;0.00;0.00;;;;;;;18.65;38.08;98654.38;8416636;28;20526;-74
2022/11/02 14:03:29;;;;;;;0.00;0.00;;;;;;;19.19;38.61;98659.50;8416378;28;20238;-76
2022/11/02 14:07:35;;;;;;;0.00;0.00;;;;;;;19.19;38.19;98661.28;8416689;28;20241;-74
2022/11/02 14:11:47;;;;;;;0.00;0.00;;;;;;;19.38;37.90;98659.09;8416430;28;20239;-74
2022/11/02 14:15:52;;;;;;;0.00;0.00;;;;;;;19.38;37.92;98666.97;8416128;28;20241;-74
2022/11/02 14:20:03;;;;;;;0.00;0.00;;;;;;;19.23;38.02;98665.38;8415185;28;20489;-74
2022/11/02 14:24:39;;;;;;;0.00;0.00;;;;;;;19.17;37.97;98663.16;8414858;28;20237;-74
2022/11/02 14:28:44;;;;;;;0.00;0.00;;;;;;;19.30;38.60;98664.00;8414601;28;20560;-75
2022/11/02 14:32:54;;;;;;;0.00;0.00;;;;;;;19.28;39.49;98666.72;8413945;28;20238;-75
2022/11/02 14:37:10;;;;;;;0.00;0.00;;;;;;;19.26;39.01;98666.00;8414774;28;20236;-74
2022/11/02 14:41:36;;;;;;;0.00;0.00;;;;;;;19.05;39.22;98660.44;8414804;28;20605;-75
2022/11/02 14:45:52;;;;;;;0.00;0.00;;;;;;;18.71;40.48;98667.91;8413599;28;20233;-76
2022/11/02 14:49:56;;;;;;;0.00;0.00;;;;;;;18.38;41.31;98662.31;8414212;28;20237;-74
2022/11/02 14:54:02;;;;;;;0.00;0.00;;;;;;;18.05;40.99;98659.13;8414201;28;20250;-75
2022/11/02 14:58:07;;;;;;;0.00;0.00;;;;;;;17.96;41.17;98655.31;8414311;28;20240;-74
2022/11/02 15:02:20;;;;;;;0.00;0.00;;;;;;;17.71;40.76;98639.44;8414095;28;20570;-74
2022/11/02 15:06:25;;;;;;;0.00;0.00;;;;;;;17.58;41.48;98637.56;8413647;28;20304;-74
2022/11/02 15:10:38;;;;;;;0.00;0.00;;;;;;;17.43;42.62;98643.78;8414225;28;20258;-74
2022/11/02 15:14:59;;;;;;;0.10;0.10;;;;;;;17.25;42.37;98650.13;8413035;28;20334;-75
2022/11/02 15:19:45;;;;;;;0.00;0.00;;;;;;;17.06;42.32;98656.50;8412759;28;20237;-74
2022/11/02 15:23:54;;;;;;;0.00;0.00;;;;;;;17.00;43.83;98659.44;8377804;28;20508;-74
2022/11/02 15:28:03;;;;;;;0.00;0.00;;;;;;;16.82;44.05;98656.16;8412845;28;20560;-75
2022/11/02 15:32:11;;;;;;;0.00;0.00;;;;;;;16.76;45.05;98640.81;8413265;28;20235;-76
2022/11/02 15:36:22;;;;;;;0.00;0.00;;;;;;;16.52;45.54;98645.69;8413504;28;20239;-77
2022/11/02 15:40:29;;;;;;;0.00;0.00;;;;;;;16.39;45.30;98658.59;8413425;28;20230;-74
2022/11/02 15:45:01;;;;;;;0.00;0.00;;;;;;;16.26;46.01;98655.00;8413274;28;20239;-74
2022/11/02 15:49:38;;;;;;;0.00;0.00;;;;;;;16.16;46.54;98641.63;8413105;28;20333;-74
2022/11/02 15:53:51;;;;;;;0.00;0.00;;;;;;;16.05;47.59;98651.84;8412875;28;20234;-75
2022/11/02 15:58:01;;;;;;;0.00;0.00;;;;;;;15.98;47.76;98646.13;8412447;28;20530;-74
2022/11/02 16:02:14;;;;;;;0.10;0.10;;;;;;;15.88;47.80;98648.41;8413024;28;20276;-74
2022/11/02 16:06:24;;;;;;;0.00;0.00;;;;;;;15.76;48.04;98644.69;8413228;28;20250;-75
2022/11/02 16:10:29;;;;;;;0.00;0.00;;;;;;;15.59;48.29;98655.16;8413187;28;20526;-74
2022/11/02 16:14:35;;;;;;;0.00;0.00;;;;;;;15.41;48.46;98655.22;8411894;28;20230;-74
2022/11/02 16:18:39;;;;;;;0.00;0.00;;;;;;;15.31;49.26;98658.44;8413216;28;20253;-76
2022/11/02 16:22:47;;;;;;;0.07;0.07;;;;;;;15.28;50.37;98650.75;8412786;28;20546;-77
2022/11/02 16:26:50;;;;;;;0.00;0.00;;;;;;;15.20;49.98;98651.97;8412970;28;20234;-74
2022/11/02 16:31:05;;;;;;;0.10;0.10;;;;;;;15.04;50.74;98646.72;8412632;28;20514;-74
2022/11/02 16:35:20;;;;;;;0.00;0.00;;;;;;;15.00;50.87;98645.22;8412972;28;20306;-74
2022/11/02 16:39:26;;;;;;;0.00;0.00;;;;;;;14.83;50.79;98651.28;8412627;28;20234;-74
2022/11/02 16:43:30;;;;;;;0.00;0.00;;;;;;;14.81;51.29;98652.25;8412478;28;20234;-76
2022/11/02 16:47:38;;;;;;;0.00;0.00;;;;;;;14.78;51.23;98655.03;8412319;28;20226;-76
2022/11/02 16:51:50;;;;;;;0.00;0.00;;;;;;;14.70;51.25;98646.75;8412512;28;20227;-74
2022/11/02 16:55:58;;;;;;;0.00;0.00;;;;;;;14.54;51.79;98637.06;8416415;28;20439;-74
2022/11/02 17:00:03;;;;;;;0.00;0.00;;;;;;;14.61;51.58;98648.91;8418750;28;20529;-74
2022/11/02 17:04:19;;;;;;;0.00;0.00;;;;;;;14.47;51.69;98652.16;8418298;27;20522;-74
2022/11/02 17:08:31;;;;;;;0.00;0.00;;;;;;;14.46;51.80;98653.06;8418488;28;20230;-74
2022/11/02 17:12:35;;;;;;;0.00;0.00;;;;;;;14.40;51.78;98653.38;8417934;28;20227;-74
2022/11/02 17:16:56;;;;;;;0.00;0.00;;;;;;;14.50;51.98;98655.53;8418211;28;20234;-76
2022/11/02 17:21:29;;;;;;;0.03;0.03;;;;;;;14.33;51.98;98653.75;8417871;28;20254;-76
2022/11/02 17:25:33;;;;;;;0.00;0.00;;;;;;;14.13;52.06;98663.38;8417638;28;20399;-76
2022/11/02 17:29:39;;;;;;;0.10;0.10;;;;;;;14.11;52.21;98669.56;8417444;28;20538;-76
2022/11/02 17:33:43;;;;;;;0.00;0.00;;;;;;;14.14;52.44;98662.44;8417270;28;20237;-74
2022/11/02 17:37:48;;;;;;;0.00;0.00;;;;;;;14.12;52.53;98645.22;8417339;28;20284;-74
2022/11/02 17:46:13;;;;;;;0.00;0.00;;;;;;;13.98;52.34;98644.13;8417050;28;20233;-77
2022/11/02 17:50:16;;;;;;;0.00;0.00;;;;;;;13.94;52.51;98647.78;8417520;28;20243;-76
2022/11/02 17:54:21;;;;;;;0.10;0.10;;;;;;;13.87;52.55;98630.75;8417178;28;20518;-76
2022/11/02 17:58:24;;;;;;;0.00;0.00;;;;;;;13.71;53.18;98621.97;8416680;28;20400;-74
2022/11/02 18:02:26;;;;;;;0.10;0.10;;;;;;;13.55;53.29;98625.28;8416248;28;20529;-74
2022/11/02 18:06:29;;;;;;;0.00;0.00;;;;;;;13.64;53.18;98624.88;8416076;28;20317;-74
2022/11/02 18:10:37;;;;;;;0.00;0.00;;;;;;;13.62;52.84;98626.69;8416446;28;20243;-74
2022/11/02 18:14:40;;;;;;;0.10;0.10;;;;;;;13.51;53.00;98628.13;8416072;28;20239;-74
2022/11/02 18:18:42;;;;;;;0.07;0.07;;;;;;;13.52;53.37;98616.78;8415787;28;20557;-77
2022/11/02 18:22:46;;;;;;;0.10;0.10;;;;;;;13.53;53.06;98614.09;8415858;28;20226;-77
2022/11/02 18:26:50;;;;;;;0.10;0.10;;;;;;;13.48;53.31;98616.94;8415631;28;20235;-76
2022/11/02 18:30:53;;;;;;;0.10;0.10;;;;;;;13.54;53.48;98609.78;8419755;28;20230;-76
2022/11/02 18:34:56;;;;;;;0.00;0.00;;;;;;;13.43;53.21;98598.06;8415530;28;20583;-76
2022/11/02 18:38:59;;;;;;;0.00;0.00;;;;;;;13.20;53.26;98598.25;8415620;28;20235;-74
2022/11/02 18:43:03;;;;;;;0.10;0.10;;;;;;;13.05;53.50;98594.59;8415375;28;20241;-74
2022/11/02 18:47:06;;;;;;;0.10;0.10;;;;;;;13.10;53.50;98595.22;8415099;28;20250;-74
2022/11/02 18:51:09;;;;;;;0.07;0.07;;;;;;;13.11;53.64;98594.31;8414946;28;20234;-74
2022/11/02 18:55:12;;;;;;;0.00;0.00;;;;;;;12.99;53.50;98592.25;8414653;28;20234;-75
2022/11/02 18:59:17;;;;;;;0.10;0.10;;;;;;;12.87;53.77;98591.03;8414290;28;20222;-76
2022/11/02 19:03:19;;;;;;;0.03;0.03;;;;;;;12.85;54.01;98604.09;8413686;28;20238;-75
2022/11/02 19:11:42;;;;;;;0.10;0.10;;;;;;;12.93;54.02;98601.16;8413510;28;20227;-75
2022/11/02 19:15:47;;;;;;;0.10;0.10;;;;;;;12.86;54.24;98586.75;8413284;28;20530;-75
2022/11/02 19:19:50;;;;;;;0.10;0.10;;;;;;;12.90;54.04;98590.91;8412993;28;20230;-75
2022/11/02 19:23:53;;;;;;;0.10;0.10;;;;;;;12.88;54.43;98598.75;8412973;28;20227;-75
2022/11/02 19:27:56;;;;;;;0.10;0.10;;;;;;;12.75;53.96;98586.38;8412953;28;20245;-75
2022/11/02 19:32:00;;;;;;;0.10;0.10;;;;;;;12.49;54.18;98583.16;8412821;28;20235;-75
2022/11/02 19:36:04;;;;;;;0.10;0.10;;;;;;;12.46;54.54;98585.84;8413197;28;20234;-75
2022/11/02 19:40:08;;;;;;;0.10;0.10;;;;;;;12.45;54.68;98579.81;8413030;28;20238;-75
2022/11/02 19:44:10;;;;;;;0.10;0.10;;;;;;;12.60;54.21;98575.72;8412652;28;20231;-74
2022/11/02 19:48:14;;;;;;;0.10;0.10;;;;;;;12.59;54.37;98589.63;8412676;28;20295;-75